createdAt,value
2023-01-23T00:00:48.234Z,50.45
2023-01-23T00:02:49.947Z,48.25
2023-01-23T00:04:51.646Z,44.70
2023-01-23T00:06:53.398Z,38.80
2023-01-23T00:08:56.223Z,40.85
2023-01-23T00:10:58.371Z,45.42
2023-01-23T00:13:00.329Z,41.97
2023-01-23T00:15:02.231Z,40.25
2023-01-23T00:17:03.906Z,40.42
2023-01-23T00:19:05.826Z,37.38
2023-01-23T00:21:10.646Z,35.58
2023-01-23T00:23:13.639Z,40.05
2023-01-23T00:25:15.521Z,38.22
2023-01-23T00:27:17.325Z,39.38
2023-01-23T00:29:19.103Z,37.38
2023-01-23T00:31:24.797Z,35.95
2023-01-23T00:33:26.890Z,37.17
2023-01-23T00:35:28.589Z,35.92
2023-01-23T00:37:30.397Z,36.25
2023-01-23T00:39:32.297Z,38.47
2023-01-23T00:41:34.626Z,48.13
2023-01-23T00:43:36.466Z,52.28
2023-01-23T00:45:38.223Z,44.08
2023-01-23T00:47:39.904Z,40.78
2023-01-23T00:49:41.675Z,36.72
2023-01-23T00:51:44.288Z,39.00
2023-01-23T00:53:46.178Z,34.13
2023-01-23T00:55:48.215Z,39.47
2023-01-23T00:57:49.963Z,40.70
2023-01-23T00:59:51.678Z,34.63
2023-01-23T01:01:53.484Z,47.10
2023-01-23T01:03:55.304Z,47.33
2023-01-23T01:05:57.207Z,36.95
2023-01-23T01:07:59.169Z,36.65
2023-01-23T01:10:00.863Z,36.42
2023-01-23T01:12:02.546Z,35.85
2023-01-23T01:14:04.553Z,40.42
2023-01-23T01:16:07.040Z,33.85
2023-01-23T01:18:08.812Z,37.47
2023-01-23T01:20:11.612Z,37.33
2023-01-23T01:22:13.461Z,42.85
2023-01-23T01:24:15.215Z,45.45
2023-01-23T01:26:17.073Z,37.90
2023-01-23T01:28:18.970Z,40.65
2023-01-23T01:30:21.092Z,40.03
2023-01-23T01:32:23.186Z,41.95
2023-01-23T01:34:25.064Z,39.65
2023-01-23T01:36:26.761Z,38.58
2023-01-23T01:38:28.909Z,32.92
2023-01-23T01:40:34.344Z,33.97
2023-01-23T01:42:41.891Z,36.05
2023-01-23T01:44:59.048Z,39.42
2023-01-23T01:47:01.310Z,31.83
2023-01-23T01:49:17.263Z,38.35
2023-01-23T01:51:24.884Z,36.45
2023-01-23T01:53:29.112Z,42.22
2023-01-23T01:55:32.284Z,38.53
2023-01-23T01:57:38.989Z,44.17
2023-01-23T01:59:47.659Z,43.72
2023-01-23T02:01:53.082Z,45.35
2023-01-23T02:03:55.552Z,39.83
2023-01-23T02:05:57.393Z,41.60
2023-01-23T02:08:13.866Z,40.65
2023-01-23T02:10:16.145Z,34.40
2023-01-23T02:12:18.215Z,39.03
2023-01-23T02:14:20.909Z,37.08
2023-01-23T02:16:27.200Z,39.73
2023-01-23T02:18:30.339Z,43.22
2023-01-23T02:20:32.063Z,43.47
2023-01-23T02:23:06.596Z,48.95
2023-01-23T02:25:30.758Z,39.30
2023-01-23T02:27:32.446Z,54.47
2023-01-23T02:29:41.991Z,39.70
2023-01-23T02:31:43.931Z,38.53
2023-01-23T02:33:49.620Z,42.90
2023-01-23T02:35:51.437Z,40.70
2023-01-23T02:37:56.064Z,41.15
2023-01-23T02:39:57.803Z,41.33
2023-01-23T02:42:01.329Z,44.78
2023-01-23T02:44:12.415Z,43.33
2023-01-23T02:46:14.188Z,37.67
2023-01-23T02:48:15.951Z,39.13
2023-01-23T02:50:18.186Z,43.80
2023-01-23T02:52:20.055Z,40.78
2023-01-23T02:54:22.684Z,41.10
2023-01-23T02:56:24.469Z,42.17
2023-01-23T02:58:26.362Z,44.45
2023-01-23T03:00:28.115Z,45.58
2023-01-23T03:02:29.842Z,41.55
2023-01-23T03:04:31.664Z,36.85
2023-01-23T03:06:35.817Z,51.88
2023-01-23T03:08:37.619Z,43.67
2023-01-23T03:10:39.522Z,51.00
2023-01-23T03:12:41.282Z,40.72
2023-01-23T03:14:43.046Z,40.28
2023-01-23T03:16:45.165Z,41.17
2023-01-23T03:18:54.294Z,45.35
2023-01-23T03:21:01.585Z,38.47
2023-01-23T03:23:03.263Z,42.65
2023-01-23T03:25:05.465Z,46.10
2023-01-23T03:27:07.401Z,43.45
2023-01-23T03:29:15.402Z,42.10
2023-01-23T03:31:17.432Z,44.83
2023-01-23T03:33:19.352Z,42.38
2023-01-23T03:35:21.126Z,51.40
2023-01-23T03:37:23.226Z,47.55
2023-01-23T03:39:25.059Z,45.88
2023-01-23T03:41:26.840Z,44.85
2023-01-23T03:43:32.852Z,48.00
2023-01-23T03:45:34.655Z,43.67
2023-01-23T03:47:36.641Z,50.05
2023-01-23T03:49:38.482Z,42.72
2023-01-23T03:51:40.334Z,50.70
2023-01-23T03:53:42.012Z,48.13
2023-01-23T03:55:46.610Z,43.75
2023-01-23T03:57:48.402Z,42.15
2023-01-23T03:59:50.166Z,45.78
2023-01-23T04:01:51.983Z,41.58
2023-01-23T04:03:53.946Z,43.15
2023-01-23T04:05:57.139Z,44.63
2023-01-23T04:07:58.954Z,42.97
2023-01-23T04:10:00.614Z,44.20
2023-01-23T04:12:02.297Z,46.72
2023-01-23T04:14:04.092Z,47.60
2023-01-23T04:16:07.495Z,52.15
2023-01-23T04:18:09.214Z,47.05
2023-01-23T04:20:12.636Z,45.72
2023-01-23T04:22:14.474Z,44.63
2023-01-23T04:24:17.553Z,46.67
2023-01-23T04:26:19.369Z,44.17
2023-01-23T04:28:21.236Z,47.50
2023-01-23T04:30:23.107Z,48.45
2023-01-23T04:32:25.694Z,44.33
2023-01-23T04:34:27.698Z,48.20
2023-01-23T04:36:30.312Z,53.60
2023-01-23T04:38:33.184Z,42.75
2023-01-23T04:40:34.972Z,50.13
2023-01-23T04:42:36.753Z,43.67
2023-01-23T04:44:38.805Z,45.55
2023-01-23T04:46:40.552Z,46.67
2023-01-23T04:48:42.355Z,51.13
2023-01-23T04:50:44.355Z,49.40
2023-01-23T04:52:46.147Z,47.13
2023-01-23T04:54:47.807Z,51.17
2023-01-23T04:56:49.812Z,48.38
2023-01-23T04:58:51.619Z,42.38
2023-01-23T05:00:53.299Z,85.88
2023-01-23T05:02:56.026Z,142.15
2023-01-23T05:04:57.733Z,131.97
2023-01-23T05:06:59.470Z,74.53
2023-01-23T05:09:01.692Z,65.43
2023-01-23T05:11:03.428Z,51.55
2023-01-23T05:13:05.700Z,60.03
2023-01-23T05:15:09.265Z,53.45
2023-01-23T05:19:12.491Z,50.45
2023-01-23T05:21:14.481Z,59.88
2023-01-23T05:23:16.288Z,67.07
2023-01-23T05:25:24.566Z,58.83
2023-01-23T05:27:26.433Z,48.38
2023-01-23T05:29:28.129Z,51.10
2023-01-23T05:31:29.903Z,51.78
2023-01-23T05:33:31.949Z,47.67
2023-01-23T05:35:33.789Z,43.15
2023-01-23T05:37:35.489Z,47.78
2023-01-23T05:39:37.511Z,55.05
2023-01-23T05:41:39.299Z,49.08
2023-01-23T05:43:40.982Z,53.28
2023-01-23T05:45:43.446Z,87.38
2023-01-23T05:47:45.146Z,64.15
2023-01-23T05:49:46.815Z,57.03
2023-01-23T05:51:48.669Z,68.47
2023-01-23T05:53:50.363Z,54.45
2023-01-23T05:55:52.077Z,48.40
2023-01-23T05:57:54.037Z,52.22
2023-01-23T05:59:55.707Z,49.08
2023-01-23T06:01:57.403Z,50.28
2023-01-23T06:03:59.316Z,52.97
2023-01-23T06:06:02.268Z,50.35
2023-01-23T06:08:04.118Z,49.08
2023-01-23T06:10:09.747Z,46.58
2023-01-23T06:12:12.032Z,47.15
2023-01-23T06:14:13.748Z,45.35
2023-01-23T06:16:15.767Z,50.80
2023-01-23T06:18:17.774Z,49.22
2023-01-23T06:20:19.849Z,46.25
2023-01-23T06:22:22.404Z,45.28
2023-01-23T06:24:24.278Z,44.90
2023-01-23T06:26:26.122Z,47.10
2023-01-23T06:28:28.296Z,47.50
2023-01-23T06:30:30.213Z,50.80
2023-01-23T06:32:31.923Z,46.00
2023-01-23T06:34:33.701Z,50.42
2023-01-23T06:36:35.390Z,51.67
2023-01-23T06:38:37.089Z,45.05
2023-01-23T06:40:38.935Z,48.60
2023-01-23T06:42:41.781Z,52.05
2023-01-23T06:44:43.449Z,46.05
2023-01-23T06:46:45.380Z,47.88
2023-01-23T06:48:47.085Z,55.03
2023-01-23T06:50:49.142Z,53.05
2023-01-23T06:52:51.419Z,53.63
2023-01-23T06:54:53.154Z,54.65
2023-01-23T06:56:54.862Z,46.30
2023-01-23T06:58:56.712Z,94.00
2023-01-23T07:00:58.570Z,54.40
2023-01-23T07:03:01.450Z,107.68
2023-01-23T07:05:03.707Z,56.50
2023-01-23T07:07:05.953Z,62.60
2023-01-23T07:09:07.709Z,58.70
2023-01-23T07:11:10.266Z,54.65
2023-01-23T07:13:12.236Z,79.90
2023-01-23T07:15:13.945Z,67.18
2023-01-23T07:17:15.796Z,71.68
2023-01-23T07:19:17.499Z,55.90
2023-01-23T07:21:19.204Z,61.72
2023-01-23T07:23:21.704Z,57.25
2023-01-23T07:25:25.373Z,56.22
2023-01-23T07:27:27.237Z,56.08
2023-01-23T07:29:29.118Z,58.10
2023-01-23T07:31:30.956Z,54.40
2023-01-23T07:33:32.751Z,64.00
2023-01-23T07:35:35.111Z,59.58
2023-01-23T07:37:36.782Z,62.20
2023-01-23T07:39:38.508Z,72.93
2023-01-23T07:41:42.208Z,70.95
2023-01-23T07:43:44.508Z,67.50
2023-01-23T07:45:46.171Z,73.10
2023-01-23T07:47:48.277Z,72.57
2023-01-23T07:49:49.999Z,90.75
2023-01-23T07:51:51.680Z,75.10
2023-01-23T07:53:53.663Z,78.47
2023-01-23T07:55:55.400Z,57.88
2023-01-23T07:57:57.230Z,67.95
2023-01-23T07:59:59.191Z,68.00
2023-01-23T08:02:00.890Z,55.15
2023-01-23T08:04:02.706Z,59.67
2023-01-23T08:06:05.006Z,59.35
2023-01-23T08:08:13.461Z,58.25
2023-01-23T08:10:15.956Z,62.50
2023-01-23T08:12:17.937Z,53.60
2023-01-23T08:14:20.059Z,45.20
2023-01-23T08:16:21.801Z,77.13
2023-01-23T08:18:23.852Z,68.15
2023-01-23T08:20:25.562Z,53.38
2023-01-23T08:22:27.300Z,95.05
2023-01-23T08:24:29.215Z,56.97
2023-01-23T08:26:30.945Z,56.95
2023-01-23T08:28:32.704Z,54.47
2023-01-23T08:30:34.593Z,70.13
2023-01-23T08:32:36.598Z,58.95
2023-01-23T08:34:38.346Z,56.88
2023-01-23T08:36:40.278Z,61.28
2023-01-23T08:38:41.985Z,63.55
2023-01-23T08:40:43.703Z,53.38
2023-01-23T08:42:45.692Z,62.10
2023-01-23T08:44:47.408Z,50.53
2023-01-23T08:46:49.122Z,67.97
2023-01-23T08:48:51.217Z,60.53
2023-01-23T08:50:59.801Z,46.03
2023-01-23T08:53:01.479Z,57.05
2023-01-23T08:55:03.721Z,63.80
2023-01-23T08:57:05.431Z,68.53
2023-01-23T08:59:07.161Z,81.15
2023-01-23T09:01:18.483Z,76.35
2023-01-23T09:03:20.251Z,57.33
2023-01-23T09:05:21.964Z,49.67
2023-01-23T09:07:24.026Z,51.28
2023-01-23T09:09:25.695Z,51.65
2023-01-23T09:11:27.454Z,55.22
2023-01-23T09:13:29.603Z,49.03
2023-01-23T09:15:31.739Z,50.67
2023-01-23T09:17:33.507Z,50.80
2023-01-23T09:19:35.645Z,50.25
2023-01-23T09:21:37.327Z,89.22
2023-01-23T09:23:39.181Z,101.72
2023-01-23T09:25:41.380Z,102.80
2023-01-23T09:27:43.121Z,69.68
2023-01-23T09:29:45.034Z,75.80
2023-01-23T09:31:46.949Z,51.47
2023-01-23T09:33:49.241Z,74.88
2023-01-23T09:35:53.998Z,58.22
2023-01-23T09:37:59.025Z,64.32
2023-01-23T09:40:00.856Z,131.38
2023-01-23T09:42:08.266Z,62.83
2023-01-23T09:44:23.072Z,78.68
2023-01-23T09:46:39.096Z,58.90
2023-01-23T09:48:54.895Z,70.63
2023-01-23T09:51:07.554Z,59.00
2023-01-23T09:53:15.138Z,45.42
2023-01-23T09:56:03.194Z,53.22
2023-01-23T09:58:06.401Z,53.00
2023-01-23T10:00:23.816Z,40.38
2023-01-23T10:02:27.099Z,59.30
2023-01-23T10:04:31.502Z,65.65
2023-01-23T10:07:11.244Z,80.47
2023-01-23T10:09:15.754Z,43.72
2023-01-23T10:11:54.682Z,39.33
2023-01-23T10:14:29.557Z,44.20
2023-01-23T10:17:00.735Z,49.08
2023-01-23T10:19:40.786Z,52.17
2023-01-23T10:22:07.839Z,45.33
2023-01-23T10:24:48.062Z,56.45
2023-01-23T10:26:50.012Z,49.63
2023-01-23T10:28:58.038Z,59.90
2023-01-23T10:31:03.672Z,49.30
2023-01-23T10:33:16.966Z,47.33
2023-01-23T10:35:43.107Z,121.85
2023-01-23T10:37:56.905Z,45.65
2023-01-23T10:40:03.321Z,44.85
2023-01-23T10:42:11.878Z,43.67
2023-01-23T10:44:19.201Z,43.65
2023-01-23T10:46:34.126Z,42.22
2023-01-23T10:48:35.982Z,46.30
2023-01-23T10:50:38.248Z,37.25
2023-01-23T10:52:42.876Z,49.75
2023-01-23T10:54:47.552Z,44.95
2023-01-23T10:56:56.560Z,44.30
2023-01-23T10:59:01.031Z,43.00
2023-01-23T11:01:03.938Z,35.97
2023-01-23T11:03:20.825Z,41.58
2023-01-23T11:05:52.024Z,49.30
2023-01-23T11:07:55.265Z,47.38
2023-01-23T11:10:13.348Z,41.10
2023-01-23T11:12:18.365Z,62.50
2023-01-23T11:14:21.297Z,78.57
2023-01-23T11:16:24.030Z,62.58
2023-01-23T11:18:34.936Z,46.50
2023-01-23T11:20:39.821Z,51.15
2023-01-23T11:22:41.824Z,64.85
2023-01-23T11:24:43.586Z,50.00
2023-01-23T11:26:46.066Z,49.63
2023-01-23T11:28:49.367Z,41.05
2023-01-23T11:30:54.214Z,41.85
2023-01-23T11:33:13.334Z,66.57
2023-01-23T11:35:20.435Z,174.25
2023-01-23T11:37:33.358Z,178.77
2023-01-23T11:39:35.179Z,130.70
2023-01-23T11:41:37.139Z,106.00
2023-01-23T11:43:39.947Z,126.47
2023-01-23T11:46:12.175Z,176.23
2023-01-23T11:48:36.776Z,87.63
2023-01-23T11:51:09.163Z,151.98
2023-01-23T11:53:42.950Z,74.95
2023-01-23T11:56:09.654Z,515.83
2023-01-23T11:58:37.195Z,386.85
2023-01-23T12:00:44.223Z,111.13
2023-01-23T12:03:01.719Z,187.40
2023-01-23T12:05:14.009Z,181.93
2023-01-23T12:07:28.811Z,206.25
2023-01-23T12:09:47.642Z,139.88
2023-01-23T12:11:58.570Z,72.63
2023-01-23T12:14:22.327Z,94.63
2023-01-23T12:16:33.272Z,133.27
2023-01-23T12:18:53.507Z,81.32
2023-01-23T12:21:09.090Z,113.75
2023-01-23T12:23:30.013Z,90.93
2023-01-23T12:25:36.066Z,52.90
2023-01-23T12:27:45.272Z,89.80
2023-01-23T12:30:01.718Z,67.93
2023-01-23T12:32:15.416Z,99.40
2023-01-23T12:34:39.214Z,36.60
2023-01-23T12:37:07.177Z,52.28
2023-01-23T12:39:47.927Z,39.22
2023-01-23T12:41:55.759Z,38.53
2023-01-23T12:44:24.777Z,63.90
2023-01-23T12:46:37.202Z,74.57
2023-01-23T12:49:00.918Z,34.20
2023-01-23T12:51:10.982Z,42.45
2023-01-23T12:53:16.542Z,42.45
2023-01-23T12:55:20.821Z,54.30
2023-01-23T12:57:30.725Z,36.28
2023-01-23T13:00:02.015Z,39.95
2023-01-23T13:02:44.901Z,37.63
2023-01-23T13:05:14.449Z,47.75
2023-01-23T13:07:51.169Z,69.18
2023-01-23T13:10:01.895Z,55.58
2023-01-23T13:12:15.663Z,64.10
2023-01-23T13:14:43.430Z,37.30
2023-01-23T13:16:54.167Z,43.45
2023-01-23T13:18:59.151Z,51.40
2023-01-23T13:21:07.093Z,75.22
2023-01-23T13:23:22.287Z,96.85
2023-01-23T13:25:24.017Z,99.28
2023-01-23T13:27:49.981Z,54.47
2023-01-23T13:29:51.667Z,85.65
2023-01-23T13:32:23.320Z,97.43
2023-01-23T13:34:25.170Z,94.78
2023-01-23T13:36:31.761Z,96.78
2023-01-23T13:38:35.262Z,80.47
2023-01-23T13:40:37.147Z,90.30
2023-01-23T13:42:38.910Z,50.45
2023-01-23T13:45:18.122Z,69.72
2023-01-23T14:20:52.801Z,244.38
2023-01-23T14:22:55.546Z,138.68
2023-01-23T14:24:58.349Z,61.75
2023-01-23T14:27:08.225Z,84.80
2023-01-23T14:29:26.480Z,55.60
2023-01-23T14:31:35.965Z,86.38
2023-01-23T14:33:43.071Z,188.70
2023-01-23T14:35:45.926Z,52.60
2023-01-23T14:37:47.706Z,58.08
2023-01-23T14:39:53.775Z,42.55
2023-01-23T14:42:02.121Z,67.25
2023-01-23T14:44:04.808Z,45.28
2023-01-23T14:46:29.819Z,48.42
2023-01-23T14:48:38.911Z,49.17
2023-01-23T14:50:41.470Z,43.97
2023-01-23T14:52:43.473Z,42.88
2023-01-23T14:54:53.442Z,54.25
2023-01-23T14:56:57.155Z,39.05
2023-01-23T14:59:01.856Z,58.13
2023-01-23T15:01:03.892Z,67.32
2023-01-23T15:03:05.804Z,85.45
2023-01-23T15:05:13.806Z,79.13
2023-01-23T15:07:17.800Z,222.70
2023-01-23T15:09:29.359Z,164.00
2023-01-23T15:11:31.991Z,103.97
2023-01-23T15:13:48.900Z,55.05
2023-01-23T15:15:58.346Z,60.08
2023-01-23T15:18:01.810Z,78.13
2023-01-23T15:20:03.632Z,46.33
2023-01-23T15:22:20.446Z,69.55
2023-01-23T15:24:27.630Z,77.47
2023-01-23T15:26:37.509Z,61.95
2023-01-23T15:28:42.114Z,36.75
2023-01-23T15:30:46.848Z,76.05
2023-01-23T15:32:48.569Z,61.85
2023-01-23T15:34:56.059Z,115.28
2023-01-23T15:37:20.232Z,199.00
2023-01-23T15:39:36.546Z,156.85
2023-01-23T15:41:46.046Z,110.03
2023-01-23T15:43:47.906Z,75.80
2023-01-23T15:45:49.628Z,46.47
2023-01-23T15:47:51.314Z,42.00
2023-01-23T15:49:53.419Z,66.28
2023-01-23T15:51:57.416Z,98.20
2023-01-23T15:53:59.197Z,107.68
2023-01-23T15:56:02.133Z,45.08
2023-01-23T15:58:04.017Z,59.63
2023-01-23T16:00:16.859Z,90.65
2023-01-23T16:02:31.133Z,64.25
2023-01-23T16:04:34.008Z,280.45
2023-01-23T16:06:36.218Z,521.55
2023-01-23T16:08:38.584Z,538.60
2023-01-23T16:10:40.773Z,253.52
2023-01-23T16:12:42.484Z,87.72
2023-01-23T16:14:44.471Z,101.90
2023-01-23T16:16:46.960Z,103.65
2023-01-23T16:18:48.697Z,115.38
2023-01-23T16:20:50.611Z,73.03
2023-01-23T16:22:56.145Z,64.72
2023-01-23T16:24:58.444Z,62.92
2023-01-23T16:27:00.387Z,46.20
2023-01-23T16:29:13.402Z,79.97
2023-01-23T16:31:17.167Z,45.85
2023-01-23T16:33:20.445Z,222.95
2023-01-23T16:35:25.483Z,56.60
2023-01-23T16:37:27.246Z,63.13
2023-01-23T16:39:33.656Z,61.40
2023-01-23T16:41:35.351Z,133.10
2023-01-23T16:43:37.147Z,68.85
2023-01-23T16:45:38.944Z,49.00
2023-01-23T16:47:40.959Z,49.20
2023-01-23T16:49:52.242Z,42.70
2023-01-23T16:52:01.708Z,40.53
2023-01-23T16:54:14.214Z,108.88
2023-01-23T16:56:28.728Z,505.90
2023-01-23T16:58:37.440Z,250.45
2023-01-23T17:00:41.712Z,80.03
2023-01-23T17:02:43.595Z,139.00
2023-01-23T17:04:45.309Z,131.93
2023-01-23T17:06:47.734Z,402.00
2023-01-23T17:08:49.480Z,156.23
2023-01-23T17:11:00.518Z,105.20
2023-01-23T17:13:02.237Z,74.05
2023-01-23T17:15:04.394Z,78.25
2023-01-23T17:17:12.113Z,77.50
2023-01-23T17:19:21.395Z,82.53
2023-01-23T17:21:27.537Z,53.47
2023-01-23T17:23:31.280Z,46.05
2023-01-23T17:25:33.493Z,76.25
2023-01-23T17:27:44.531Z,43.40
2023-01-23T17:29:48.748Z,56.95
2023-01-23T17:31:50.722Z,48.85
2023-01-23T17:33:52.645Z,68.82
2023-01-23T17:35:54.709Z,50.20
2023-01-23T17:37:56.407Z,63.40
2023-01-23T17:39:58.062Z,53.63
2023-01-23T17:42:00.241Z,38.85
2023-01-23T17:44:01.942Z,47.35
2023-01-23T17:46:05.232Z,52.70
2023-01-23T17:48:13.054Z,61.65
2023-01-23T17:50:24.251Z,54.80
2023-01-23T17:52:26.002Z,109.53
2023-01-23T17:54:27.821Z,50.90
2023-01-23T17:56:29.499Z,45.55
2023-01-23T17:58:31.459Z,48.90
2023-01-23T18:00:33.493Z,87.60
2023-01-23T18:02:35.283Z,107.97
2023-01-23T18:04:39.125Z,61.45
2023-01-23T18:06:40.938Z,88.97
2023-01-23T18:08:42.835Z,150.48
2023-01-23T18:10:46.920Z,135.30
2023-01-23T18:12:57.258Z,122.25
2023-01-23T18:15:29.681Z,67.68
2023-01-23T18:17:56.580Z,93.95
2023-01-23T18:19:58.578Z,121.20
2023-01-23T18:22:00.621Z,141.68
2023-01-23T18:24:04.014Z,75.15
2023-01-23T18:26:12.311Z,42.92
2023-01-23T18:28:19.342Z,47.83
2023-01-23T18:30:26.393Z,42.80
2023-01-23T18:32:48.105Z,56.17
2023-01-23T18:35:04.298Z,51.60
2023-01-23T18:37:33.343Z,75.05
2023-01-23T18:39:57.171Z,97.75
2023-01-23T18:42:23.459Z,76.18
2023-01-23T18:44:27.154Z,60.13
2023-01-23T18:46:29.100Z,95.00
2023-01-23T18:48:31.359Z,88.25
2023-01-23T18:50:34.499Z,72.78
2023-01-23T18:53:02.672Z,73.50
2023-01-23T18:55:25.242Z,116.72
2023-01-23T18:57:32.886Z,122.65
2023-01-23T18:59:46.965Z,162.65
2023-01-23T19:01:57.291Z,147.05
2023-01-23T19:04:00.973Z,120.80
2023-01-23T19:08:06.271Z,66.10
2023-01-23T19:10:13.830Z,75.97
2023-01-23T19:12:25.843Z,85.53
2023-01-23T19:14:30.620Z,71.10
2023-01-23T19:16:37.623Z,58.20
2023-01-23T19:18:43.552Z,76.50
2023-01-23T19:20:58.072Z,70.35
2023-01-23T19:23:27.746Z,71.70
2023-01-23T19:25:29.693Z,63.03
2023-01-23T19:27:32.771Z,58.33
2023-01-23T19:29:34.602Z,65.85
2023-01-23T19:31:39.317Z,80.07
2023-01-23T19:33:41.061Z,55.65
2023-01-23T19:35:44.113Z,110.00
2023-01-23T19:37:46.226Z,105.40
2023-01-23T19:39:50.055Z,57.25
2023-01-23T19:41:51.864Z,127.00
2023-01-23T19:44:02.807Z,57.30
2023-01-23T19:46:13.859Z,59.08
2023-01-23T19:48:15.613Z,222.95
2023-01-23T19:50:18.383Z,96.57
2023-01-23T19:52:20.557Z,71.57
2023-01-23T19:54:24.284Z,79.65
2023-01-23T19:58:27.888Z,52.50
2023-01-23T20:00:35.430Z,47.85
2023-01-23T20:02:37.257Z,48.72
2023-01-23T20:04:39.400Z,43.80
2023-01-23T20:06:41.108Z,69.90
2023-01-23T20:08:42.773Z,164.55
2023-01-23T20:10:44.489Z,76.03
2023-01-23T20:12:49.257Z,61.88
2023-01-23T20:14:51.129Z,91.47
2023-01-23T20:16:53.020Z,42.50
2023-01-23T20:18:55.414Z,55.33
2023-01-23T20:21:00.334Z,59.28
2023-01-23T20:23:02.198Z,42.33
2023-01-23T20:25:04.868Z,54.85
2023-01-23T20:27:06.701Z,49.60
2023-01-23T20:29:09.335Z,52.88
2023-01-23T20:31:15.279Z,51.40
2023-01-23T20:33:17.012Z,47.47
2023-01-23T20:35:18.716Z,49.40
2023-01-23T20:37:20.424Z,51.05
2023-01-23T20:39:22.145Z,41.83
2023-01-23T20:41:24.110Z,44.47
2023-01-23T20:43:25.828Z,56.38
2023-01-23T20:45:27.606Z,56.00
2023-01-23T20:47:29.358Z,50.50
2023-01-23T20:49:31.034Z,53.83
2023-01-23T20:51:32.988Z,60.10
2023-01-23T20:53:36.059Z,83.70
2023-01-23T20:55:38.088Z,53.17
2023-01-23T20:57:40.157Z,58.25
2023-01-23T20:59:42.038Z,67.97
2023-01-23T21:01:45.086Z,65.97
2023-01-23T21:03:48.250Z,61.15
2023-01-23T21:05:50.244Z,50.97
2023-01-23T21:07:52.017Z,70.50
2023-01-23T21:09:54.061Z,69.95
2023-01-23T21:11:56.233Z,76.75
2023-01-23T21:13:57.915Z,64.85
2023-01-23T21:16:02.051Z,44.33
2023-01-23T21:18:04.417Z,48.10
2023-01-23T21:20:07.103Z,46.47
2023-01-23T21:22:09.178Z,44.33
2023-01-23T21:24:10.963Z,40.83
2023-01-23T21:26:13.435Z,43.17
2023-01-23T21:28:15.503Z,42.53
2023-01-23T21:30:17.556Z,44.47
2023-01-23T21:32:19.274Z,45.75
2023-01-23T21:34:21.098Z,116.57
2023-01-23T21:36:25.043Z,92.07
2023-01-23T21:38:26.753Z,61.63
2023-01-23T21:40:28.565Z,44.50
2023-01-23T21:42:30.242Z,80.68
2023-01-23T21:44:34.465Z,59.75
2023-01-23T21:46:36.991Z,69.43
2023-01-23T21:48:39.215Z,46.50
2023-01-23T21:50:41.306Z,52.70
2023-01-23T21:52:43.543Z,56.65
2023-01-23T21:54:45.260Z,54.67
2023-01-23T21:56:46.981Z,51.78
2023-01-23T21:58:49.482Z,52.65
2023-01-23T22:01:01.977Z,59.67
2023-01-23T22:03:04.108Z,48.60
2023-01-23T22:05:06.508Z,46.42
2023-01-23T22:07:08.281Z,43.05
2023-01-23T22:09:14.716Z,46.22
2023-01-23T22:11:16.958Z,48.10
2023-01-23T22:13:19.792Z,51.17
2023-01-23T22:15:21.864Z,58.15
2023-01-23T22:17:23.888Z,58.40
2023-01-23T22:19:26.030Z,63.85
2023-01-23T22:21:27.974Z,65.30
2023-01-23T22:23:30.124Z,57.40
2023-01-23T22:25:32.011Z,50.72
2023-01-23T22:27:33.924Z,87.47
2023-01-23T22:29:35.953Z,62.95
2023-01-23T22:31:37.918Z,57.33
2023-01-23T22:33:41.822Z,64.13
2023-01-23T22:35:43.769Z,53.13
2023-01-23T22:37:45.470Z,52.00
2023-01-23T22:39:47.218Z,47.60
2023-01-23T22:41:49.706Z,42.78
2023-01-23T22:43:56.319Z,50.72
2023-01-23T22:46:14.615Z,86.45
2023-01-23T22:48:16.481Z,55.72
2023-01-23T22:50:18.311Z,58.50
2023-01-23T22:52:20.220Z,71.85
2023-01-23T22:54:22.110Z,53.10
2023-01-23T22:56:25.274Z,59.38
2023-01-23T22:58:27.052Z,53.60
2023-01-23T23:00:28.995Z,56.10
2023-01-23T23:02:31.168Z,53.45
2023-01-23T23:04:33.113Z,52.97
2023-01-23T23:06:34.929Z,57.28
2023-01-23T23:08:36.655Z,55.50
2023-01-23T23:10:38.440Z,53.75
2023-01-23T23:12:40.281Z,51.72
2023-01-23T23:14:42.010Z,55.50
2023-01-23T23:16:43.932Z,53.22
2023-01-23T23:18:47.635Z,56.47
2023-01-23T23:20:49.569Z,57.65
2023-01-23T23:22:51.277Z,57.35
2023-01-23T23:24:53.148Z,55.15
2023-01-23T23:26:54.903Z,72.70
2023-01-23T23:28:56.822Z,60.88
2023-01-23T23:30:58.694Z,63.95
2023-01-23T23:33:00.448Z,53.85
2023-01-23T23:35:02.439Z,56.83
2023-01-23T23:37:04.305Z,55.97
2023-01-23T23:39:05.984Z,58.28
2023-01-23T23:41:12.125Z,56.58
2023-01-23T23:43:14.025Z,58.78
2023-01-23T23:45:15.835Z,59.00
2023-01-23T23:47:17.576Z,52.22
2023-01-23T23:49:19.461Z,87.63
2023-01-23T23:51:21.512Z,59.47
2023-01-23T23:53:23.416Z,91.03
2023-01-23T23:55:25.394Z,63.95
2023-01-23T23:57:27.069Z,56.58
2023-01-23T23:59:28.830Z,55.92
